createdAt,value
2023-05-06T00:01:45.256Z,99.90
2023-05-06T00:04:12.312Z,99.90
2023-05-06T00:06:38.958Z,99.90
2023-05-06T00:09:05.615Z,99.90
2023-05-06T00:11:32.369Z,99.90
2023-05-06T00:13:59.022Z,99.90
2023-05-06T00:16:25.707Z,99.90
2023-05-06T00:18:52.376Z,99.90
2023-05-06T00:21:19.083Z,99.90
2023-05-06T00:23:45.721Z,99.90
2023-05-06T00:26:12.503Z,99.90
2023-05-06T00:28:39.245Z,99.90
2023-05-06T00:31:06.145Z,99.90
2023-05-06T00:33:32.815Z,99.90
2023-05-06T00:35:59.432Z,99.90
2023-05-06T00:38:26.107Z,99.90
2023-05-06T00:40:52.916Z,99.90
2023-05-06T00:43:19.712Z,99.90
2023-05-06T00:45:46.529Z,99.90
2023-05-06T00:48:14.137Z,99.90
2023-05-06T00:50:40.809Z,99.90
2023-05-06T00:53:08.532Z,99.90
2023-05-06T00:55:35.561Z,99.90
2023-05-06T00:58:02.754Z,99.90
2023-05-06T01:00:29.547Z,99.90
2023-05-06T01:02:56.591Z,99.90
2023-05-06T01:05:25.532Z,99.90
2023-05-06T01:08:00.612Z,99.90
2023-05-06T01:10:36.199Z,99.90
2023-05-06T01:13:21.429Z,99.90
2023-05-06T01:15:50.185Z,99.90
2023-05-06T01:18:20.809Z,99.90
2023-05-06T01:20:49.729Z,99.90
2023-05-06T01:23:16.628Z,99.90
2023-05-06T01:25:43.509Z,99.90
2023-05-06T01:28:11.603Z,99.90
2023-05-06T01:30:44.732Z,99.90
2023-05-06T01:33:11.387Z,99.90
2023-05-06T01:35:49.055Z,99.90
2023-05-06T01:38:18.550Z,99.90
2023-05-06T01:40:49.420Z,99.90
2023-05-06T01:43:16.899Z,99.90
2023-05-06T01:45:43.906Z,99.90
2023-05-06T01:48:11.120Z,99.90
2023-05-06T01:50:37.835Z,99.90
2023-05-06T01:53:04.607Z,99.90
2023-05-06T01:55:32.236Z,99.90
2023-05-06T01:57:58.899Z,99.90
2023-05-06T02:00:26.229Z,99.90
2023-05-06T02:02:53.082Z,99.90
2023-05-06T02:05:19.996Z,99.90
2023-05-06T02:07:46.697Z,99.90
2023-05-06T02:10:13.422Z,99.90
2023-05-06T02:12:40.222Z,99.90
2023-05-06T02:15:07.279Z,99.90
2023-05-06T02:17:38.071Z,99.90
2023-05-06T02:20:06.035Z,99.90
2023-05-06T02:22:32.859Z,99.90
2023-05-06T02:24:59.549Z,99.90
2023-05-06T02:27:26.222Z,99.90
2023-05-06T02:29:53.241Z,99.90
2023-05-06T02:32:19.958Z,99.90
2023-05-06T02:34:46.597Z,99.90
2023-05-06T02:37:13.294Z,99.90
2023-05-06T02:39:40.032Z,99.90
2023-05-06T02:42:06.714Z,99.90
2023-05-06T02:44:33.358Z,99.90
2023-05-06T02:47:00.045Z,99.90
2023-05-06T02:49:26.684Z,99.90
2023-05-06T02:51:53.347Z,99.90
2023-05-06T02:54:19.992Z,99.90
2023-05-06T02:56:46.682Z,99.90
2023-05-06T02:59:13.651Z,99.90
2023-05-06T03:01:40.642Z,99.90
2023-05-06T03:04:07.385Z,99.90
2023-05-06T03:06:34.365Z,99.90
2023-05-06T03:09:01.059Z,99.90
2023-05-06T03:11:27.784Z,99.90
2023-05-06T03:13:54.509Z,99.90
2023-05-06T03:16:21.268Z,99.90
2023-05-06T03:18:47.939Z,99.90
2023-05-06T03:21:14.754Z,99.90
2023-05-06T03:23:41.374Z,99.90
2023-05-06T03:26:07.999Z,99.90
2023-05-06T03:28:34.691Z,99.90
2023-05-06T03:31:01.336Z,99.90
2023-05-06T03:33:28.006Z,99.90
2023-05-06T03:35:54.842Z,99.90
2023-05-06T03:38:21.601Z,99.90
2023-05-06T03:40:48.311Z,99.90
2023-05-06T03:43:14.973Z,99.90
2023-05-06T03:45:41.664Z,99.90
2023-05-06T03:48:08.408Z,99.90
2023-05-06T03:50:35.297Z,99.90
2023-05-06T03:53:02.016Z,99.90
2023-05-06T03:55:28.649Z,99.90
2023-05-06T03:57:55.272Z,99.90
2023-05-06T04:00:21.957Z,99.90
2023-05-06T04:02:48.717Z,99.90
2023-05-06T04:05:16.228Z,99.90
2023-05-06T04:07:42.956Z,99.90
2023-05-06T04:10:09.743Z,99.90
2023-05-06T04:12:36.607Z,99.90
2023-05-06T04:15:03.411Z,99.90
2023-05-06T04:17:30.097Z,99.90
2023-05-06T04:19:57.468Z,99.90
2023-05-06T04:22:24.146Z,99.90
2023-05-06T04:24:50.823Z,99.90
2023-05-06T04:27:17.582Z,99.90
2023-05-06T04:29:44.247Z,99.90
2023-05-06T04:32:11.875Z,99.90
2023-05-06T04:34:38.563Z,99.90
2023-05-06T04:37:05.708Z,99.90
2023-05-06T04:39:32.715Z,99.90
2023-05-06T04:41:59.330Z,99.90
2023-05-06T04:44:26.064Z,99.90
2023-05-06T04:46:52.746Z,99.90
2023-05-06T04:49:19.492Z,99.90
2023-05-06T04:51:46.169Z,99.90
2023-05-06T04:54:12.797Z,99.90
2023-05-06T04:56:39.475Z,99.90
2023-05-06T04:59:06.226Z,99.90
2023-05-06T05:01:33.199Z,99.90
2023-05-06T05:03:59.955Z,99.90
2023-05-06T05:06:26.617Z,99.90
2023-05-06T05:08:55.246Z,99.90
2023-05-06T05:11:22.089Z,99.90
2023-05-06T05:13:48.733Z,99.90
2023-05-06T05:16:15.491Z,99.90
2023-05-06T05:18:42.121Z,99.90
2023-05-06T05:21:08.840Z,99.90
2023-05-06T05:23:35.534Z,99.90
2023-05-06T05:26:03.121Z,99.90
2023-05-06T05:28:29.840Z,99.90
2023-05-06T05:31:01.376Z,99.90
2023-05-06T05:33:28.084Z,99.90
2023-05-06T05:35:54.810Z,99.90
2023-05-06T05:38:21.898Z,99.90
2023-05-06T05:40:48.700Z,99.90
2023-05-06T05:43:15.420Z,99.90
2023-05-06T05:45:42.167Z,99.90
2023-05-06T05:48:08.837Z,99.90
2023-05-06T05:50:35.550Z,99.90
2023-05-06T05:53:02.172Z,99.90
2023-05-06T05:55:29.469Z,99.90
2023-05-06T05:57:56.085Z,99.90
2023-05-06T06:00:22.769Z,99.90
2023-05-06T06:02:49.522Z,99.90
2023-05-06T06:05:16.688Z,99.90
2023-05-06T06:07:43.381Z,99.90
2023-05-06T06:10:10.214Z,99.90
2023-05-06T06:12:37.036Z,99.90
2023-05-06T06:15:03.850Z,99.90
2023-05-06T06:17:30.650Z,99.90
2023-05-06T06:19:58.740Z,99.90
2023-05-06T06:22:26.387Z,99.90
2023-05-06T06:24:56.210Z,99.90
2023-05-06T06:27:23.382Z,99.90
2023-05-06T06:29:50.426Z,99.90
2023-05-06T06:32:17.131Z,99.90
2023-05-06T06:34:43.770Z,99.90
2023-05-06T06:37:10.767Z,99.90
2023-05-06T06:39:37.421Z,99.90
2023-05-06T06:42:04.445Z,99.90
2023-05-06T06:44:31.143Z,99.90
2023-05-06T06:46:57.785Z,99.90
2023-05-06T06:49:24.409Z,99.90
2023-05-06T06:51:51.546Z,99.90
2023-05-06T06:54:18.214Z,99.90
2023-05-06T06:56:44.915Z,99.90
2023-05-06T06:59:11.619Z,99.90
2023-05-06T07:01:38.333Z,99.90
2023-05-06T07:04:07.033Z,99.90
2023-05-06T07:06:33.856Z,99.90
2023-05-06T07:09:00.576Z,99.90
2023-05-06T07:11:27.236Z,99.90
2023-05-06T07:13:53.949Z,99.80
2023-05-06T07:16:20.595Z,96.90
2023-05-06T07:18:47.974Z,93.80
2023-05-06T07:21:14.665Z,86.90
2023-05-06T07:23:41.359Z,85.60
2023-05-06T07:26:07.961Z,86.40
2023-05-06T07:28:34.638Z,83.00
2023-05-06T07:31:01.370Z,80.30
2023-05-06T07:33:28.131Z,81.60
2023-05-06T07:35:54.958Z,83.60
2023-05-06T07:38:22.721Z,79.10
2023-05-06T07:40:49.741Z,77.00
2023-05-06T07:43:16.418Z,76.70
2023-05-06T07:45:43.111Z,74.50
2023-05-06T07:48:10.019Z,73.70
2023-05-06T07:50:36.733Z,75.20
2023-05-06T07:53:04.103Z,79.50
2023-05-06T07:55:32.039Z,83.30
2023-05-06T07:58:00.346Z,88.60
2023-05-06T08:00:27.223Z,90.50
2023-05-06T08:02:54.010Z,92.00
2023-05-06T08:05:20.748Z,93.10
2023-05-06T08:07:47.379Z,93.40
2023-05-06T08:10:14.052Z,93.50
2023-05-06T08:12:41.546Z,94.10
2023-05-06T08:15:08.607Z,95.00
2023-05-06T08:17:35.297Z,93.40
2023-05-06T08:20:01.969Z,90.60
2023-05-06T08:22:28.625Z,90.50
2023-05-06T08:24:55.369Z,90.90
2023-05-06T08:27:21.971Z,91.00
2023-05-06T08:29:48.657Z,91.00
2023-05-06T08:32:15.506Z,91.20
2023-05-06T08:34:42.140Z,89.70
2023-05-06T08:37:08.801Z,86.90
2023-05-06T08:39:35.523Z,87.10
2023-05-06T08:42:03.133Z,81.10
2023-05-06T08:44:29.903Z,81.20
2023-05-06T08:46:56.607Z,81.90
2023-05-06T08:49:23.242Z,84.40
2023-05-06T08:51:54.398Z,79.10
2023-05-06T08:54:22.788Z,83.60
2023-05-06T08:56:53.278Z,82.60
2023-05-06T08:59:23.662Z,85.10
2023-05-06T09:01:50.797Z,82.50
2023-05-06T09:04:18.476Z,83.60
2023-05-06T09:06:45.121Z,85.10
2023-05-06T09:09:13.024Z,85.60
2023-05-06T09:11:39.754Z,88.00
2023-05-06T09:14:11.080Z,88.30
2023-05-06T09:16:38.422Z,87.80
2023-05-06T09:19:05.824Z,87.20
2023-05-06T09:21:36.886Z,85.00
2023-05-06T09:24:04.546Z,80.90
2023-05-06T09:26:31.781Z,83.00
2023-05-06T09:28:59.103Z,80.60
2023-05-06T09:31:26.371Z,80.30
2023-05-06T09:33:53.653Z,83.20
2023-05-06T09:36:20.785Z,82.70
2023-05-06T09:38:47.812Z,80.30
2023-05-06T09:41:14.616Z,82.30
2023-05-06T09:43:45.040Z,80.20
2023-05-06T09:46:12.586Z,80.00
2023-05-06T09:48:39.728Z,80.00
2023-05-06T09:51:07.702Z,78.30
2023-05-06T09:53:36.104Z,79.30
2023-05-06T09:56:06.674Z,78.20
2023-05-06T09:58:33.991Z,82.20
2023-05-06T10:01:01.450Z,81.00
2023-05-06T10:03:28.646Z,81.80
2023-05-06T10:05:57.220Z,80.50
2023-05-06T10:08:24.301Z,80.80
2023-05-06T10:10:51.203Z,79.70
2023-05-06T10:13:19.488Z,78.40
2023-05-06T10:15:47.898Z,79.00
2023-05-06T10:18:19.123Z,81.60
2023-05-06T10:20:46.828Z,82.50
2023-05-06T10:23:15.324Z,78.50
2023-05-06T10:25:42.648Z,78.30
2023-05-06T10:28:11.268Z,76.60
2023-05-06T10:30:58.081Z,77.10
2023-05-06T10:33:25.667Z,78.80
2023-05-06T10:36:27.832Z,78.10
2023-05-06T10:38:56.478Z,79.40
2023-05-06T10:41:24.156Z,76.40
2023-05-06T10:43:56.714Z,78.70
2023-05-06T10:46:24.677Z,78.20
2023-05-06T10:49:06.737Z,76.90
2023-05-06T10:51:42.355Z,77.40
2023-05-06T10:54:09.103Z,79.20
2023-05-06T10:56:36.921Z,79.30
2023-05-06T10:59:09.901Z,78.50
2023-05-06T11:01:37.284Z,79.60
2023-05-06T11:04:14.262Z,81.90
2023-05-06T11:06:50.675Z,76.60
2023-05-06T11:09:25.305Z,82.00
2023-05-06T11:12:02.708Z,83.30
2023-05-06T11:14:29.373Z,81.60
2023-05-06T11:16:57.410Z,77.60
2023-05-06T11:19:25.547Z,77.40
2023-05-06T11:21:52.939Z,77.90
2023-05-06T11:24:27.363Z,80.80
2023-05-06T11:26:54.680Z,76.40
2023-05-06T11:29:21.432Z,75.90
2023-05-06T11:31:49.648Z,83.50
2023-05-06T11:34:27.191Z,80.60
2023-05-06T11:37:03.873Z,77.00
2023-05-06T11:39:34.869Z,81.90
2023-05-06T11:42:07.220Z,79.10
2023-05-06T11:44:34.823Z,74.30
2023-05-06T11:47:03.202Z,78.40
2023-05-06T11:49:30.038Z,77.50
2023-05-06T11:51:57.165Z,78.60
2023-05-06T11:54:25.030Z,77.00
2023-05-06T11:56:52.612Z,76.70
2023-05-06T11:59:26.592Z,76.70
2023-05-06T12:01:53.262Z,79.30
2023-05-06T12:04:19.883Z,79.60
2023-05-06T12:06:46.656Z,77.90
2023-05-06T12:09:13.670Z,78.50
2023-05-06T12:11:42.577Z,77.90
2023-05-06T12:14:10.620Z,77.60
2023-05-06T12:16:37.592Z,77.60
2023-05-06T12:19:04.659Z,79.00
2023-05-06T12:21:32.978Z,75.80
2023-05-06T12:24:01.121Z,75.50
2023-05-06T12:26:28.162Z,74.90
2023-05-06T12:29:05.849Z,74.80
2023-05-06T12:31:32.645Z,73.40
2023-05-06T12:34:01.189Z,76.60
2023-05-06T12:36:28.198Z,77.20
2023-05-06T12:38:55.768Z,72.60
2023-05-06T12:41:23.185Z,72.50
2023-05-06T12:43:50.331Z,76.00
2023-05-06T12:46:17.539Z,73.50
2023-05-06T12:48:59.893Z,70.60
2023-05-06T12:51:27.391Z,74.20
2023-05-06T12:53:54.305Z,74.10
2023-05-06T12:56:22.129Z,74.40
2023-05-06T12:58:59.065Z,75.10
2023-05-06T13:01:25.977Z,77.70
2023-05-06T13:03:53.703Z,74.80
2023-05-06T13:06:20.480Z,74.30
2023-05-06T13:08:47.170Z,73.10
2023-05-06T13:11:13.949Z,73.80
2023-05-06T13:13:41.001Z,73.80
2023-05-06T13:16:08.692Z,73.70
2023-05-06T13:18:35.976Z,72.90
2023-05-06T13:21:03.847Z,73.20
2023-05-06T13:23:31.842Z,74.20
2023-05-06T13:26:04.793Z,72.50
2023-05-06T13:28:33.536Z,73.70
2023-05-06T13:31:00.370Z,74.30
2023-05-06T13:33:27.182Z,73.70
2023-05-06T13:35:54.031Z,75.70
2023-05-06T13:38:20.988Z,74.60
2023-05-06T13:40:50.243Z,74.10
2023-05-06T13:43:17.311Z,74.10
2023-05-06T13:45:47.081Z,74.00
2023-05-06T13:48:14.109Z,74.30
2023-05-06T13:50:44.551Z,73.70
2023-05-06T13:53:11.611Z,73.30
2023-05-06T13:55:38.471Z,73.60
2023-05-06T13:58:05.875Z,74.40
2023-05-06T14:00:32.902Z,75.50
2023-05-06T14:02:59.733Z,76.00
2023-05-06T14:05:26.541Z,75.30
2023-05-06T14:07:53.301Z,74.40
2023-05-06T14:10:20.854Z,74.00
2023-05-06T14:12:48.144Z,73.50
2023-05-06T14:15:15.160Z,74.30
2023-05-06T14:17:41.901Z,74.70
2023-05-06T14:20:11.820Z,75.20
2023-05-06T14:22:40.685Z,76.60
2023-05-06T14:25:07.718Z,72.40
2023-05-06T14:27:34.812Z,72.60
2023-05-06T14:30:01.731Z,74.20
2023-05-06T14:32:28.403Z,73.20
2023-05-06T14:34:56.049Z,74.30
2023-05-06T14:37:22.668Z,73.20
2023-05-06T14:39:49.942Z,73.90
2023-05-06T14:42:16.599Z,73.70
2023-05-06T14:44:45.123Z,73.60
2023-05-06T14:47:11.956Z,73.20
2023-05-06T14:49:38.712Z,73.00
2023-05-06T14:52:05.339Z,73.00
2023-05-06T14:54:33.098Z,73.00
2023-05-06T14:57:02.952Z,73.90
2023-05-06T14:59:29.675Z,72.90
2023-05-06T15:01:56.791Z,73.50
2023-05-06T15:04:23.472Z,73.40
2023-05-06T15:06:50.176Z,72.00
2023-05-06T15:09:16.804Z,72.40
2023-05-06T15:11:44.224Z,71.70
2023-05-06T15:14:10.896Z,72.70
2023-05-06T15:16:37.669Z,72.10
2023-05-06T15:19:04.547Z,72.20
2023-05-06T15:21:31.394Z,74.70
2023-05-06T15:23:58.072Z,73.40
2023-05-06T15:26:24.847Z,72.50
2023-05-06T15:28:51.516Z,72.50
2023-05-06T15:31:18.174Z,73.10
2023-05-06T15:33:44.945Z,71.90
2023-05-06T15:36:11.576Z,71.80
2023-05-06T15:38:53.312Z,71.80
2023-05-06T15:41:20.059Z,71.60
2023-05-06T15:43:46.750Z,71.90
2023-05-06T15:46:13.464Z,71.00
2023-05-06T15:48:40.123Z,73.30
2023-05-06T15:51:06.783Z,71.70
2023-05-06T15:53:33.414Z,72.90
2023-05-06T15:56:13.261Z,72.70
2023-05-06T15:58:44.582Z,71.50
2023-05-06T16:01:11.420Z,71.40
2023-05-06T16:03:41.047Z,71.80
2023-05-06T16:06:08.827Z,71.50
2023-05-06T16:08:35.905Z,72.10
2023-05-06T16:11:02.704Z,72.40
2023-05-06T16:13:29.372Z,71.90
2023-05-06T16:15:56.150Z,72.20
2023-05-06T16:18:22.842Z,73.30
2023-05-06T16:20:49.445Z,72.10
2023-05-06T16:23:16.393Z,73.20
2023-05-06T16:25:43.200Z,72.80
2023-05-06T16:28:09.950Z,71.50
2023-05-06T16:30:36.935Z,72.30
2023-05-06T16:33:05.105Z,72.90
2023-05-06T16:35:32.350Z,71.50
2023-05-06T16:37:59.145Z,71.70
2023-05-06T16:40:27.724Z,72.10
2023-05-06T16:42:55.173Z,71.30
2023-05-06T16:45:21.935Z,72.50
2023-05-06T16:47:48.801Z,72.50
2023-05-06T16:50:15.816Z,71.50
2023-05-06T16:52:42.614Z,72.60
2023-05-06T16:55:09.558Z,73.40
2023-05-06T16:57:36.616Z,74.00
2023-05-06T17:00:06.164Z,74.40
2023-05-06T17:02:32.931Z,74.60
2023-05-06T17:04:59.688Z,75.00
2023-05-06T17:07:26.338Z,74.70
2023-05-06T17:09:52.972Z,75.70
2023-05-06T17:12:23.711Z,75.80
2023-05-06T17:14:50.818Z,76.40
2023-05-06T17:17:18.605Z,76.20
2023-05-06T17:19:47.097Z,76.60
2023-05-06T17:22:13.743Z,77.00
2023-05-06T17:24:40.483Z,77.30
2023-05-06T17:27:07.323Z,77.30
2023-05-06T17:29:33.991Z,77.50
2023-05-06T17:32:00.685Z,78.10
2023-05-06T17:34:27.348Z,77.50
2023-05-06T17:36:54.106Z,77.40
2023-05-06T17:39:21.297Z,78.70
2023-05-06T17:41:47.899Z,79.50
2023-05-06T17:44:17.504Z,79.20
2023-05-06T17:46:47.293Z,80.20
2023-05-06T17:49:13.965Z,82.80
2023-05-06T17:51:42.511Z,81.50
2023-05-06T17:54:09.181Z,83.90
2023-05-06T17:56:35.828Z,82.20
2023-05-06T17:59:04.864Z,83.20
2023-05-06T18:01:31.976Z,83.40
2023-05-06T18:03:58.866Z,84.40
2023-05-06T18:06:27.004Z,85.50
2023-05-06T18:08:53.593Z,85.30
2023-05-06T18:11:20.716Z,88.00
2023-05-06T18:13:47.424Z,89.30
2023-05-06T18:16:14.171Z,89.60
2023-05-06T18:18:42.494Z,90.30
2023-05-06T18:21:09.279Z,90.80
2023-05-06T18:23:35.966Z,91.20
2023-05-06T18:26:05.834Z,91.30
2023-05-06T18:28:36.169Z,91.40
2023-05-06T18:31:02.874Z,91.90
2023-05-06T18:33:29.498Z,92.30
2023-05-06T18:35:56.543Z,92.60
2023-05-06T18:38:26.549Z,92.80
2023-05-06T18:40:53.243Z,93.40
2023-05-06T18:43:19.930Z,93.80
2023-05-06T18:45:46.627Z,94.20
2023-05-06T18:48:13.408Z,94.50
2023-05-06T18:50:41.058Z,95.10
2023-05-06T18:53:07.729Z,95.50
2023-05-06T18:55:34.456Z,96.20
2023-05-06T18:58:05.500Z,96.70
2023-05-06T19:00:32.567Z,97.70
2023-05-06T19:02:59.285Z,97.70
2023-05-06T19:05:26.115Z,97.70
2023-05-06T19:07:52.724Z,98.30
2023-05-06T19:10:19.491Z,99.50
2023-05-06T19:12:46.194Z,99.90
2023-05-06T19:15:14.089Z,99.90
2023-05-06T19:17:41.352Z,99.90
2023-05-06T19:20:08.499Z,99.90
2023-05-06T19:22:35.237Z,99.90
2023-05-06T19:25:01.835Z,99.90
2023-05-06T19:27:28.835Z,99.90
2023-05-06T19:29:55.431Z,99.90
2023-05-06T19:32:22.110Z,99.90
2023-05-06T19:34:48.864Z,99.90
2023-05-06T19:37:15.507Z,99.90
2023-05-06T19:39:42.682Z,99.90
2023-05-06T19:42:09.563Z,99.90
2023-05-06T19:44:36.247Z,99.90
2023-05-06T19:47:03.046Z,99.90
2023-05-06T19:49:32.094Z,99.90
2023-05-06T19:51:59.251Z,99.90
2023-05-06T19:54:27.021Z,99.90
2023-05-06T19:56:53.715Z,99.90
2023-05-06T19:59:20.420Z,99.90
2023-05-06T20:01:47.101Z,99.90
2023-05-06T20:04:13.834Z,99.90
2023-05-06T20:06:40.565Z,99.90
2023-05-06T20:09:07.255Z,99.90
2023-05-06T20:11:33.932Z,99.90
2023-05-06T20:14:00.724Z,99.90
2023-05-06T20:16:27.450Z,99.90
2023-05-06T20:18:54.260Z,99.90
2023-05-06T20:21:20.955Z,99.90
2023-05-06T20:23:47.691Z,99.90
2023-05-06T20:26:14.345Z,99.90
2023-05-06T20:28:40.960Z,99.90
2023-05-06T20:31:07.721Z,99.90
2023-05-06T20:33:34.500Z,99.90
2023-05-06T20:36:01.461Z,99.90
2023-05-06T20:38:30.785Z,99.90
2023-05-06T20:40:58.752Z,99.90
2023-05-06T20:43:25.476Z,99.90
2023-05-06T20:45:52.246Z,99.90
2023-05-06T20:48:19.125Z,99.90
2023-05-06T20:50:46.284Z,99.90
2023-05-06T20:53:12.883Z,99.90
2023-05-06T20:55:39.527Z,99.90
2023-05-06T20:58:06.226Z,99.90
2023-05-06T21:00:32.939Z,99.90
2023-05-06T21:02:59.834Z,99.90
2023-05-06T21:05:26.766Z,99.90
2023-05-06T21:07:53.928Z,99.90
2023-05-06T21:10:20.661Z,99.90
2023-05-06T21:12:47.926Z,99.90
2023-05-06T21:15:15.092Z,99.90
2023-05-06T21:17:41.978Z,99.90
2023-05-06T21:20:08.869Z,99.90
2023-05-06T21:22:35.809Z,99.90
2023-05-06T21:25:02.507Z,99.90
2023-05-06T21:27:29.162Z,99.90
2023-05-06T21:29:56.619Z,99.90
2023-05-06T21:32:23.331Z,99.90
2023-05-06T21:34:49.941Z,99.90
2023-05-06T21:37:16.553Z,99.90
2023-05-06T21:39:43.436Z,99.90
2023-05-06T21:42:10.183Z,99.90
2023-05-06T21:44:37.579Z,99.90
2023-05-06T21:47:04.262Z,99.90
2023-05-06T21:49:30.918Z,99.90
2023-05-06T21:51:57.580Z,99.90
2023-05-06T21:54:25.125Z,99.90
2023-05-06T21:56:51.702Z,99.90
2023-05-06T21:59:19.729Z,99.90
2023-05-06T22:01:46.507Z,99.90
2023-05-06T22:04:13.541Z,99.90
2023-05-06T22:06:40.413Z,99.90
2023-05-06T22:09:09.637Z,99.90
2023-05-06T22:11:39.270Z,99.90
2023-05-06T22:14:06.626Z,99.90
2023-05-06T22:16:38.133Z,99.90
2023-05-06T22:19:05.766Z,99.90
2023-05-06T22:21:33.790Z,99.90
2023-05-06T22:24:00.850Z,99.90
2023-05-06T22:26:32.801Z,99.90
2023-05-06T22:28:59.480Z,99.90
2023-05-06T22:31:26.380Z,99.90
2023-05-06T22:33:57.514Z,99.90
2023-05-06T22:36:27.888Z,99.90
2023-05-06T22:38:54.687Z,99.90
2023-05-06T22:41:21.788Z,99.90
2023-05-06T22:43:48.445Z,99.90
2023-05-06T22:46:15.146Z,99.90
2023-05-06T22:48:44.624Z,99.90
2023-05-06T22:51:15.550Z,99.90
2023-05-06T22:53:42.341Z,99.90
2023-05-06T22:56:09.248Z,99.90
2023-05-06T22:58:36.096Z,99.90
2023-05-06T23:01:02.893Z,99.90
2023-05-06T23:03:29.615Z,99.90
2023-05-06T23:05:56.378Z,99.90
2023-05-06T23:08:23.057Z,99.90
2023-05-06T23:10:49.734Z,99.90
2023-05-06T23:13:16.477Z,99.90
2023-05-06T23:15:43.189Z,99.90
2023-05-06T23:18:09.928Z,99.90
2023-05-06T23:20:36.621Z,99.90
2023-05-06T23:23:03.915Z,99.90
2023-05-06T23:25:30.714Z,99.90
2023-05-06T23:27:57.348Z,99.90
2023-05-06T23:30:24.094Z,99.90
2023-05-06T23:32:50.846Z,99.90
2023-05-06T23:35:17.444Z,99.90
2023-05-06T23:37:44.101Z,99.90
2023-05-06T23:40:12.602Z,99.90
2023-05-06T23:42:39.595Z,99.90
2023-05-06T23:45:06.535Z,99.90
2023-05-06T23:47:33.336Z,99.90
2023-05-06T23:50:00.749Z,99.90
2023-05-06T23:52:27.514Z,99.90
2023-05-06T23:54:54.126Z,99.90
2023-05-06T23:57:20.865Z,99.90
2023-05-06T23:59:47.540Z,99.90
